This is the latest recevied weather packets stored in our database for station/object N1OTX. If no packets are shown the sender has not sent any weather packets the latest 10 day(s).
| Time | Temp. | Humidity | Pressure | Rain* | Wind** | Luminosity | Snow |
|---|---|---|---|---|---|---|---|
| 1777432231 | 7.22° C | 76% | 1019.7 hPa | 0 mm | - | 0 W/m² | - |
| 1777431931 | 6.67° C | 76% | 1019.6 hPa | 0 mm | - | 0 W/m² | - |
| 1777431330 | 6.67° C | 76% | 1019.7 hPa | 0 mm | - | 0 W/m² | - |
| 1777430450 | 6.67° C | 76% | 1019.8 hPa | 0 mm | - | 0 W/m² | - |
| 1777430132 | 6.67° C | 75% | 1020 hPa | 0 mm | - | 0 W/m² | - |
| 1777429832 | 6.67° C | 75% | 1020.1 hPa | 0 mm | - | 0 W/m² | - |
| 1777428931 | 6.67° C | 75% | 1020.2 hPa | 0 mm | - | 0 W/m² | - |
| 1777428031 | 7.22° C | 75% | 1020.5 hPa | 0 mm | - | 0 W/m² | - |
| 1777426530 | 7.22° C | 74% | 1020.7 hPa | 0 mm | - | 0 W/m² | - |
| 1777425930 | 7.22° C | 74% | 1020.7 hPa | 0 mm | - | 0 W/m² | - |
| 1777423231 | 7.78° C | 66% | 1020.5 hPa | 0 mm | - | 0 W/m² | - |
| 1777418131 | 10° C | 43% | 1020.1 hPa | 0 mm | - | 14 W/m² | - |
| 1777417530 | 10° C | 37% | 1020.2 hPa | 0 mm | - | 23 W/m² | - |
| 1777416051 | 10.56° C | 32% | 1020.5 hPa | 0 mm | - | 41 W/m² | - |
| 1777415131 | 11.11° C | 26% | 1020.7 hPa | 0 mm | - | 43 W/m² | - |
| 1777413931 | 11.67° C | 19% | 1020.9 hPa | 0 mm | - | 59 W/m² | - |
| 1777411531 | 12.22° C | 18% | 1020.9 hPa | 0 mm | - | 152 W/m² | - |
| 1777410930 | 12.78° C | 20% | 1021 hPa | 0 mm | - | 124 W/m² | - |
| 1777409432 | 13.33° C | 21% | 1020.9 hPa | 0 mm | - | 243 W/m² | - |
| 1777409132 | 13.89° C | 22% | 1020.9 hPa | 0 mm | - | 295 W/m² | - |
| 1777404652 | 15° C | 19% | 1021.5 hPa | 0 mm | - | 603 W/m² | - |
| 1777403130 | 15.56° C | 22% | 1021.5 hPa | 0 mm | - | 668 W/m² | - |
| 1777399251 | 15.56° C | 46% | 1022.2 hPa | 0 mm | - | 783 W/m² | - |
| 1777398330 | 15.56° C | 49% | 1022.1 hPa | 0 mm | - | 802 W/m² | - |
| 1777396231 | 16.11° C | 51% | 1022.1 hPa | 0 mm | - | 826 W/m² | - |
* Rain latest hour (hover to see other rain measurements)
** Current wind speed in m/s (hover to see current wind gust speed)